createdAt,value
2018-04-15T00:01:05.046Z,11.33
2018-04-15T00:03:32.575Z,11.85
2018-04-15T00:06:00.155Z,11.20
2018-04-15T00:08:27.688Z,11.50
2018-04-15T00:10:55.235Z,10.70
2018-04-15T00:13:23.543Z,12.00
2018-04-15T00:15:51.084Z,11.00
2018-04-15T00:18:18.637Z,10.65
2018-04-15T00:20:46.847Z,12.70
2018-04-15T00:23:16.544Z,11.93
2018-04-15T00:25:44.054Z,13.10
2018-04-15T00:28:11.609Z,12.35
2018-04-15T00:30:39.228Z,12.17
2018-04-15T00:33:06.756Z,11.57
2018-04-15T00:35:34.302Z,10.93
2018-04-15T00:38:02.611Z,11.03
2018-04-15T00:40:30.164Z,11.00
2018-04-15T00:42:58.209Z,10.47
2018-04-15T00:45:26.520Z,10.77
2018-04-15T00:47:54.047Z,10.80
2018-04-15T00:50:22.758Z,11.20
2018-04-15T00:52:50.302Z,11.13
2018-04-15T00:55:17.816Z,11.40
2018-04-15T00:57:45.355Z,11.60
2018-04-15T01:00:14.291Z,11.15
2018-04-15T01:02:42.579Z,10.80
2018-04-15T01:05:11.223Z,11.80
2018-04-15T01:07:38.734Z,11.60
2018-04-15T01:10:06.301Z,12.07
2018-04-15T01:12:33.855Z,11.60
2018-04-15T01:15:01.379Z,11.10
2018-04-15T01:17:28.895Z,12.90
2018-04-15T01:19:56.460Z,11.80
2018-04-15T01:22:23.983Z,12.93
2018-04-15T01:24:51.503Z,13.38
2018-04-15T01:27:19.525Z,13.47
2018-04-15T01:29:47.044Z,14.30
2018-04-15T01:32:16.374Z,14.80
2018-04-15T01:34:43.922Z,13.60
2018-04-15T01:37:11.444Z,12.23
2018-04-15T01:39:38.962Z,13.07
2018-04-15T01:42:06.499Z,12.60
2018-04-15T01:44:34.032Z,13.40
2018-04-15T01:47:01.570Z,12.90
2018-04-15T01:49:30.640Z,12.57
2018-04-15T01:51:58.943Z,12.90
2018-04-15T01:54:26.469Z,13.52
2018-04-15T01:56:54.409Z,13.63
2018-04-15T01:59:21.948Z,13.43
2018-04-15T02:01:50.782Z,14.10
2018-04-15T02:04:18.314Z,13.07
2018-04-15T02:06:46.598Z,13.90
2018-04-15T02:09:26.056Z,14.10
2018-04-15T02:21:53.637Z,13.75
2018-04-15T02:24:21.946Z,13.50
2018-04-15T02:26:49.494Z,12.53
2018-04-15T02:29:17.415Z,12.43
2018-04-15T02:31:44.971Z,13.90
2018-04-15T02:34:12.514Z,13.13
2018-04-15T02:36:40.083Z,14.67
2018-04-15T02:39:07.619Z,12.83
2018-04-15T02:41:35.162Z,11.00
2018-04-15T02:44:02.737Z,11.93
2018-04-15T02:46:30.285Z,11.80
2018-04-15T02:48:57.806Z,13.00
2018-04-15T02:51:26.593Z,11.70
2018-04-15T02:53:54.110Z,11.60
2018-04-15T02:56:21.628Z,10.67
2018-04-15T02:58:49.944Z,12.70
2018-04-15T03:01:17.459Z,11.27
2018-04-15T03:03:46.521Z,12.10
2018-04-15T03:06:25.912Z,11.82
2018-04-15T03:11:40.906Z,11.80
2018-04-15T03:14:08.422Z,11.48
2018-04-15T03:16:35.937Z,11.80
2018-04-15T03:19:03.497Z,12.00
2018-04-15T03:21:31.063Z,12.02
2018-04-15T03:23:58.608Z,12.03
2018-04-15T03:26:26.179Z,11.87
2018-04-15T03:28:54.468Z,11.27
2018-04-15T03:31:22.007Z,11.27
2018-04-15T03:33:50.063Z,10.88
2018-04-15T03:36:17.580Z,11.80
2018-04-15T03:38:45.880Z,12.17
2018-04-15T03:41:26.361Z,12.68
2018-04-15T03:52:33.971Z,11.03
2018-04-15T03:55:02.252Z,10.30
2018-04-15T03:57:30.535Z,10.57
2018-04-15T03:59:58.882Z,10.80
2018-04-15T04:02:26.398Z,10.05
2018-04-15T04:04:54.516Z,10.03
2018-04-15T04:07:23.035Z,9.30
2018-04-15T04:09:50.608Z,9.80
2018-04-15T04:12:18.126Z,9.70
2018-04-15T04:14:46.252Z,11.43
2018-04-15T04:17:20.355Z,12.30
2018-04-15T04:22:47.482Z,36.70
2018-04-15T04:25:30.523Z,33.25
2018-04-15T04:27:58.075Z,27.30
2018-04-15T04:30:25.599Z,29.13
2018-04-15T04:32:53.128Z,21.73
2018-04-15T04:35:20.774Z,18.37
2018-04-15T04:37:48.304Z,15.40
2018-04-15T04:40:16.404Z,12.80
2018-04-15T04:42:43.955Z,11.10
2018-04-15T04:45:11.481Z,9.88
2018-04-15T04:47:39.767Z,9.00
2018-04-15T04:50:07.332Z,8.13
2018-04-15T04:52:35.608Z,8.13
2018-04-15T04:55:03.939Z,9.30
2018-04-15T04:57:31.556Z,9.30
2018-04-15T04:59:59.085Z,8.87
2018-04-15T05:02:26.626Z,9.20
2018-04-15T05:04:54.172Z,8.70
2018-04-15T05:07:22.291Z,8.50
2018-04-15T05:09:49.803Z,8.13
2018-04-15T05:12:17.389Z,8.40
2018-04-15T05:14:45.685Z,8.70
2018-04-15T05:17:14.615Z,8.27
2018-04-15T05:19:42.237Z,8.23
2018-04-15T05:22:09.758Z,9.40
2018-04-15T05:24:37.278Z,9.03
2018-04-15T05:27:04.838Z,9.30
2018-04-15T05:29:32.368Z,10.32
2018-04-15T05:32:00.656Z,9.53
2018-04-15T05:34:28.258Z,9.93
2018-04-15T05:36:55.826Z,9.50
2018-04-15T05:39:23.607Z,10.10
2018-04-15T05:41:51.883Z,10.43
2018-04-15T05:44:20.205Z,9.70
2018-04-15T05:46:47.726Z,9.10
2018-04-15T05:49:17.352Z,12.00
2018-04-15T05:51:45.664Z,10.27
2018-04-15T05:54:15.469Z,9.70
2018-04-15T05:56:43.027Z,8.80
2018-04-15T05:59:10.547Z,9.40
2018-04-15T06:01:38.062Z,8.57
2018-04-15T06:04:06.118Z,7.60
2018-04-15T06:06:34.480Z,8.23
2018-04-15T06:09:02.698Z,7.77
2018-04-15T06:11:31.065Z,8.02
2018-04-15T06:13:58.575Z,8.90
2018-04-15T06:16:26.104Z,8.33
2018-04-15T06:18:53.661Z,8.00
2018-04-15T06:21:21.210Z,7.13
2018-04-15T06:23:48.709Z,7.60
2018-04-15T06:26:18.032Z,7.92
2018-04-15T06:28:45.543Z,7.85
2018-04-15T06:31:24.375Z,7.68
2018-04-15T06:38:37.447Z,8.93
2018-04-15T06:41:04.971Z,8.57
2018-04-15T06:43:33.258Z,8.10
2018-04-15T06:46:02.303Z,7.37
2018-04-15T06:48:29.836Z,7.90
2018-04-15T06:50:57.397Z,8.57
2018-04-15T06:53:24.971Z,7.80
2018-04-15T06:55:52.486Z,8.10
2018-04-15T06:58:20.042Z,8.05
2018-04-15T07:00:47.602Z,8.17
2018-04-15T07:03:17.335Z,8.50
2018-04-15T07:05:44.952Z,8.03
2018-04-15T07:08:12.987Z,7.43
2018-04-15T07:10:41.487Z,7.23
2018-04-15T07:13:09.003Z,7.07
2018-04-15T07:15:36.648Z,7.32
2018-04-15T07:18:04.267Z,11.20
2018-04-15T07:20:31.808Z,8.87
2018-04-15T07:22:59.361Z,8.20
2018-04-15T07:25:26.880Z,8.60
2018-04-15T07:27:54.399Z,9.40
2018-04-15T07:30:22.327Z,10.53
2018-04-15T07:32:49.861Z,9.37
2018-04-15T07:35:34.051Z,9.30
2018-04-15T07:41:30.087Z,10.40
2018-04-15T07:43:57.670Z,9.70
2018-04-15T07:46:26.583Z,8.73
2018-04-15T07:48:55.520Z,9.00
2018-04-15T07:51:24.158Z,9.10
2018-04-15T07:53:51.662Z,9.00
2018-04-15T07:56:19.272Z,9.40
2018-04-15T07:58:46.847Z,8.90
2018-04-15T08:01:16.275Z,9.80
2018-04-15T08:03:43.827Z,9.90
2018-04-15T08:06:12.147Z,9.47
2018-04-15T08:08:39.698Z,9.17
2018-04-15T08:11:08.052Z,9.37
2018-04-15T08:13:36.378Z,8.40
2018-04-15T08:16:03.959Z,8.00
2018-04-15T08:18:31.543Z,8.23
2018-04-15T08:20:59.088Z,7.53
2018-04-15T08:23:26.606Z,8.10
2018-04-15T08:25:54.140Z,8.00
2018-04-15T08:28:21.679Z,7.70
2018-04-15T08:30:50.083Z,9.27
2018-04-15T08:33:23.509Z,8.87
2018-04-15T08:35:51.039Z,8.37
2018-04-15T08:38:18.560Z,8.77
2018-04-15T08:40:46.863Z,8.30
2018-04-15T08:43:15.704Z,8.15
2018-04-15T08:45:43.155Z,8.73
2018-04-15T08:48:10.694Z,8.43
2018-04-15T08:50:38.242Z,8.97
2018-04-15T08:53:05.767Z,9.57
2018-04-15T08:55:34.596Z,8.73
2018-04-15T08:58:02.112Z,9.47
2018-04-15T09:00:29.652Z,9.10
2018-04-15T09:02:57.966Z,8.67
2018-04-15T09:05:25.483Z,9.50
2018-04-15T09:07:53.013Z,9.07
2018-04-15T09:10:20.842Z,9.28
2018-04-15T09:12:50.560Z,9.77
2018-04-15T09:15:18.075Z,9.27
2018-04-15T09:17:46.129Z,8.33
2018-04-15T09:20:13.777Z,8.47
2018-04-15T09:22:42.291Z,8.50
2018-04-15T09:25:10.109Z,8.13
2018-04-15T09:27:38.458Z,7.00
2018-04-15T09:30:06.151Z,7.80
2018-04-15T09:32:33.737Z,7.80
2018-04-15T09:35:02.064Z,7.97
2018-04-15T09:37:29.657Z,7.63
2018-04-15T09:39:58.138Z,6.93
2018-04-15T09:42:25.666Z,8.70
2018-04-15T09:44:53.209Z,7.70
2018-04-15T09:47:20.768Z,8.10
2018-04-15T09:49:48.382Z,9.20
2018-04-15T09:52:16.707Z,9.33
2018-04-15T09:54:44.327Z,9.40
2018-04-15T09:57:11.900Z,10.17
2018-04-15T09:59:39.663Z,10.02
2018-04-15T10:02:08.239Z,10.80
2018-04-15T10:04:37.028Z,9.30
2018-04-15T10:07:07.024Z,9.90
2018-04-15T10:09:34.615Z,10.23
2018-04-15T10:12:02.210Z,10.75
2018-04-15T10:14:30.630Z,11.17
2018-04-15T10:16:58.276Z,11.50
2018-04-15T10:19:25.797Z,10.37
2018-04-15T10:21:53.550Z,10.80
2018-04-15T10:27:11.595Z,9.73
2018-04-15T10:29:39.302Z,15.87
2018-04-15T10:32:06.923Z,11.80
2018-04-15T10:34:34.569Z,11.05
2018-04-15T10:37:02.343Z,11.33
2018-04-15T10:39:30.141Z,12.10
2018-04-15T10:41:58.159Z,11.32
2018-04-15T10:44:25.807Z,10.10
2018-04-15T10:46:54.292Z,11.17
2018-04-15T10:49:21.849Z,10.88
2018-04-15T10:51:50.274Z,11.90
2018-04-15T10:54:18.577Z,11.10
2018-04-15T10:56:46.189Z,10.83
2018-04-15T10:59:16.379Z,10.98
2018-04-15T11:01:44.043Z,11.13
2018-04-15T11:04:11.772Z,11.30
2018-04-15T11:06:39.958Z,10.67
2018-04-15T11:09:07.900Z,11.77
2018-04-15T11:11:35.597Z,12.17
2018-04-15T11:14:04.033Z,11.70
2018-04-15T11:16:34.892Z,10.30
2018-04-15T11:19:02.653Z,13.50
2018-04-15T11:21:30.258Z,11.77
2018-04-15T11:23:57.812Z,11.83
2018-04-15T11:26:26.303Z,11.80
2018-04-15T11:28:53.941Z,11.80
2018-04-15T11:31:21.524Z,12.47
2018-04-15T11:33:50.057Z,11.32
2018-04-15T11:36:21.150Z,11.80
2018-04-15T11:38:49.465Z,13.00
2018-04-15T11:41:17.059Z,12.90
2018-04-15T11:43:44.658Z,12.33
2018-04-15T11:46:12.421Z,11.10
2018-04-15T11:48:40.251Z,11.80
2018-04-15T11:51:08.318Z,11.93
2018-04-15T11:53:36.026Z,13.00
2018-04-15T11:56:03.570Z,13.07
2018-04-15T11:58:32.176Z,12.20
2018-04-15T12:00:59.711Z,12.70
2018-04-15T12:03:27.320Z,13.40
2018-04-15T12:05:55.044Z,13.00
2018-04-15T12:08:22.758Z,13.23
2018-04-15T12:10:51.275Z,12.53
2018-04-15T12:13:20.297Z,13.23
2018-04-15T12:15:48.072Z,12.40
2018-04-15T12:18:17.461Z,13.00
2018-04-15T12:20:45.928Z,13.23
2018-04-15T12:23:14.623Z,11.90
2018-04-15T12:25:42.220Z,13.10
2018-04-15T12:28:09.896Z,13.57
2018-04-15T12:30:37.458Z,13.77
2018-04-15T12:33:05.077Z,13.07
2018-04-15T12:35:32.783Z,13.10
2018-04-15T12:38:00.313Z,12.20
2018-04-15T12:40:27.854Z,12.70
2018-04-15T12:42:55.445Z,12.20
2018-04-15T12:45:22.984Z,16.90
2018-04-15T12:47:50.574Z,12.27
2018-04-15T12:50:18.155Z,12.80
2018-04-15T12:52:45.694Z,12.50
2018-04-15T12:55:14.935Z,12.07
2018-04-15T12:57:42.538Z,12.13
2018-04-15T13:00:10.093Z,12.87
2018-04-15T13:02:37.723Z,11.60
2018-04-15T13:05:05.316Z,10.80
2018-04-15T13:07:32.854Z,11.73
2018-04-15T13:10:01.188Z,13.07
2018-04-15T13:12:28.840Z,11.63
2018-04-15T13:14:57.248Z,11.70
2018-04-15T13:17:24.925Z,11.90
2018-04-15T13:19:52.910Z,11.30
2018-04-15T13:22:20.485Z,11.60
2018-04-15T13:24:48.890Z,11.30
2018-04-15T13:27:16.491Z,12.37
2018-04-15T13:29:44.099Z,12.77
2018-04-15T13:32:11.624Z,12.10
2018-04-15T13:34:39.193Z,11.40
2018-04-15T13:37:06.713Z,10.87
2018-04-15T13:39:34.264Z,11.30
2018-04-15T13:42:01.831Z,12.17
2018-04-15T13:44:30.134Z,10.02
2018-04-15T13:46:57.706Z,11.07
2018-04-15T13:49:25.278Z,10.18
2018-04-15T13:51:52.805Z,10.40
2018-04-15T13:54:21.146Z,9.70
2018-04-15T13:56:48.721Z,10.53
2018-04-15T13:59:16.411Z,10.90
2018-04-15T14:01:43.946Z,10.40
2018-04-15T14:04:11.733Z,10.60
2018-04-15T14:06:39.280Z,10.30
2018-04-15T14:09:06.870Z,11.60
2018-04-15T14:11:34.442Z,12.80
2018-04-15T14:14:01.971Z,13.27
2018-04-15T14:16:29.515Z,13.00
2018-04-15T14:18:57.091Z,11.87
2018-04-15T14:21:25.512Z,12.35
2018-04-15T14:23:53.094Z,12.70
2018-04-15T14:26:21.638Z,13.13
2018-04-15T14:28:49.156Z,13.00
2018-04-15T14:31:17.790Z,12.18
2018-04-15T14:33:45.342Z,13.70
2018-04-15T14:36:15.324Z,12.60
2018-04-15T14:38:42.877Z,12.70
2018-04-15T14:41:10.588Z,12.57
2018-04-15T14:43:38.117Z,13.10
2018-04-15T14:46:05.643Z,13.18
2018-04-15T14:48:34.163Z,13.18
2018-04-15T14:51:01.698Z,12.33
2018-04-15T14:53:29.289Z,12.10
2018-04-15T14:55:56.839Z,12.90
2018-04-15T14:58:24.370Z,14.70
2018-04-15T15:00:51.905Z,15.80
2018-04-15T15:03:19.487Z,14.63
2018-04-15T15:05:47.048Z,14.13
2018-04-15T15:08:17.167Z,15.55
2018-04-15T15:10:45.075Z,14.50
2018-04-15T15:13:13.544Z,14.00
2018-04-15T15:15:41.179Z,13.53
2018-04-15T15:18:08.747Z,13.90
2018-04-15T15:20:36.350Z,14.40
2018-04-15T15:23:05.864Z,15.30
2018-04-15T15:25:34.195Z,14.82
2018-04-15T15:28:01.838Z,16.33
2018-04-15T15:30:29.373Z,15.30
2018-04-15T15:32:56.957Z,13.60
2018-04-15T15:35:24.486Z,12.83
2018-04-15T15:37:52.062Z,13.60
2018-04-15T15:40:22.246Z,18.42
2018-04-15T15:42:49.823Z,12.30
2018-04-15T15:45:17.355Z,13.67
2018-04-15T15:47:44.910Z,15.03
2018-04-15T15:50:12.498Z,16.67
2018-04-15T15:52:40.113Z,15.90
2018-04-15T15:55:07.910Z,23.97
2018-04-15T15:57:35.467Z,20.52
2018-04-15T16:00:03.009Z,18.40
2018-04-15T16:02:30.630Z,13.55
2018-04-15T16:04:58.211Z,13.57
2018-04-15T16:07:25.859Z,12.75
2018-04-15T16:09:53.441Z,15.13
2018-04-15T16:12:20.994Z,15.05
2018-04-15T16:14:48.553Z,12.88
2018-04-15T16:17:17.331Z,14.70
2018-04-15T16:19:44.942Z,14.03
2018-04-15T16:22:12.482Z,14.80
2018-04-15T16:24:40.692Z,14.77
2018-04-15T16:27:08.230Z,15.77
2018-04-15T16:29:35.761Z,14.87
2018-04-15T16:32:03.453Z,14.67
2018-04-15T16:34:31.015Z,17.80
2018-04-15T16:36:58.572Z,15.50
2018-04-15T16:39:26.831Z,17.30
2018-04-15T16:41:54.457Z,18.17
2018-04-15T16:47:03.535Z,21.23
2018-04-15T16:49:31.095Z,16.40
2018-04-15T16:52:00.767Z,24.80
2018-04-15T16:54:28.405Z,18.23
2018-04-15T16:56:55.947Z,17.80
2018-04-15T16:59:23.475Z,19.77
2018-04-15T17:01:51.075Z,17.53
2018-04-15T17:04:18.628Z,16.00
2018-04-15T17:06:46.166Z,18.57
2018-04-15T17:09:16.463Z,17.33
2018-04-15T17:11:44.050Z,17.57
2018-04-15T17:14:11.609Z,19.77
2018-04-15T17:16:39.714Z,21.47
2018-04-15T17:19:08.043Z,22.40
2018-04-15T17:21:36.362Z,19.00
2018-04-15T17:24:04.678Z,17.97
2018-04-15T17:26:32.394Z,19.63
2018-04-15T17:28:59.915Z,18.57
2018-04-15T17:31:27.511Z,18.42
2018-04-15T17:33:55.048Z,18.40
2018-04-15T17:36:22.627Z,18.73
2018-04-15T17:38:51.680Z,18.70
2018-04-15T17:41:19.219Z,18.03
2018-04-15T17:43:46.909Z,16.30
2018-04-15T17:46:26.123Z,16.67
2018-04-15T17:51:30.051Z,17.27
2018-04-15T17:53:57.623Z,17.00
2018-04-15T17:56:25.170Z,17.73
2018-04-15T18:01:28.887Z,17.73
2018-04-15T18:03:56.490Z,17.00
2018-04-15T18:06:34.101Z,19.85
2018-04-15T18:09:01.829Z,20.73
2018-04-15T18:11:29.387Z,21.47
2018-04-15T18:14:06.494Z,25.23
2018-04-15T18:16:36.982Z,21.80
2018-04-15T18:19:04.515Z,21.20
2018-04-15T18:21:32.088Z,22.15
2018-04-15T18:24:05.550Z,22.53
2018-04-15T18:26:34.362Z,19.08
2018-04-15T18:29:01.974Z,21.80
2018-04-15T18:31:29.525Z,20.92
2018-04-15T18:33:57.147Z,27.20
2018-04-15T18:36:25.109Z,52.04
2018-04-15T18:38:52.676Z,29.93
2018-04-15T18:41:20.480Z,31.10
2018-04-15T18:43:49.168Z,33.27
2018-04-15T18:46:17.867Z,31.60
2018-04-15T18:48:45.541Z,22.60
2018-04-15T18:51:24.836Z,23.10
2018-04-15T18:56:26.685Z,26.37
2018-04-15T18:58:54.248Z,21.20
2018-04-15T19:01:21.770Z,19.77
2018-04-15T19:03:50.075Z,21.20
2018-04-15T19:06:17.615Z,18.73
2018-04-15T19:08:45.987Z,18.47
2018-04-15T19:11:14.726Z,18.23
2018-04-15T19:13:42.253Z,16.50
2018-04-15T19:16:09.822Z,17.60
2018-04-15T19:18:37.429Z,16.53
2018-04-15T19:21:04.993Z,17.67
2018-04-15T19:23:32.562Z,17.52
2018-04-15T19:26:00.204Z,17.50
2018-04-15T19:28:28.320Z,17.50
2018-04-15T19:33:29.808Z,18.17
2018-04-15T19:35:57.335Z,16.93
2018-04-15T19:38:24.929Z,16.33
2018-04-15T19:40:52.910Z,16.77
2018-04-15T19:43:20.476Z,16.95
2018-04-15T19:45:48.807Z,16.77
2018-04-15T19:48:16.462Z,16.87
2018-04-15T19:50:44.760Z,18.17
2018-04-15T19:53:12.371Z,16.47
2018-04-15T19:55:39.968Z,17.80
2018-04-15T19:58:07.506Z,17.40
2018-04-15T20:00:35.191Z,17.53
2018-04-15T20:03:02.998Z,17.10
2018-04-15T20:05:30.582Z,18.73
2018-04-15T20:07:58.193Z,16.70
2018-04-15T20:10:25.775Z,18.67
2018-04-15T20:12:53.310Z,19.53
2018-04-15T20:15:20.849Z,19.30
2018-04-15T20:17:48.447Z,19.70
2018-04-15T20:20:17.194Z,20.50
2018-04-15T20:22:44.727Z,20.00
2018-04-15T20:25:12.499Z,20.10
2018-04-15T20:27:40.045Z,25.30
2018-04-15T20:30:08.534Z,27.05
2018-04-15T20:32:36.851Z,27.70
2018-04-15T20:35:04.839Z,27.70
2018-04-15T20:37:32.362Z,34.37
2018-04-15T20:40:00.018Z,24.50
2018-04-15T20:42:27.559Z,23.23
2018-04-15T20:44:55.128Z,22.77
2018-04-15T20:47:23.222Z,23.50
2018-04-15T20:49:50.755Z,22.63
2018-04-15T20:52:20.938Z,22.60
2018-04-15T20:54:48.497Z,28.48
2018-04-15T20:57:16.533Z,28.43
2018-04-15T20:59:44.077Z,25.70
2018-04-15T21:02:11.633Z,26.30
2018-04-15T21:04:39.179Z,32.80
2018-04-15T21:07:06.710Z,32.30
2018-04-15T21:09:34.668Z,31.20
2018-04-15T21:12:02.222Z,26.07
2018-04-15T21:14:29.754Z,27.13
2018-04-15T21:16:58.103Z,24.73
2018-04-15T21:19:25.648Z,28.17
2018-04-15T21:21:53.950Z,30.83
2018-04-15T21:24:21.726Z,31.27
2018-04-15T21:26:49.271Z,31.03
2018-04-15T21:29:18.020Z,30.30
2018-04-15T21:31:45.871Z,28.23
2018-04-15T21:34:26.315Z,27.30
2018-04-15T21:39:40.764Z,26.20
2018-04-15T21:42:08.364Z,26.93
2018-04-15T21:44:36.886Z,26.30
2018-04-15T21:47:04.487Z,27.10
2018-04-15T21:49:32.059Z,25.10
2018-04-15T21:51:59.614Z,26.75
2018-04-15T21:54:27.195Z,26.90
2018-04-15T21:56:54.731Z,24.10
2018-04-15T21:59:22.273Z,25.43
2018-04-15T22:01:49.859Z,23.30
2018-04-15T22:04:17.494Z,23.60
2018-04-15T22:06:45.063Z,24.80
2018-04-15T22:09:14.215Z,23.27
2018-04-15T22:11:53.572Z,21.33
2018-04-15T22:14:22.528Z,23.72
2018-04-15T22:16:50.967Z,23.77
2018-04-15T22:19:18.581Z,23.47
2018-04-15T22:21:46.145Z,22.97
2018-04-15T22:24:25.307Z,23.77
2018-04-15T22:30:00.991Z,24.23
2018-04-15T22:32:29.009Z,25.90
2018-04-15T22:34:56.536Z,22.55
2018-04-15T22:37:24.188Z,23.80
2018-04-15T22:39:51.798Z,22.00
2018-04-15T22:42:19.323Z,23.27
2018-04-15T22:44:46.911Z,23.60
2018-04-15T22:47:26.809Z,25.73
2018-04-15T22:55:55.843Z,29.23
2018-04-15T22:58:23.359Z,28.13
2018-04-15T23:00:50.881Z,28.70
2018-04-15T23:03:18.519Z,28.17
2018-04-15T23:05:46.039Z,27.93
2018-04-15T23:08:14.703Z,28.52
2018-04-15T23:10:42.304Z,26.17
2018-04-15T23:13:09.841Z,27.37
2018-04-15T23:15:37.395Z,26.87
2018-04-15T23:18:05.821Z,28.40
2018-04-15T23:20:33.360Z,28.27
2018-04-15T23:23:01.065Z,27.03
2018-04-15T23:25:28.620Z,27.85
2018-04-15T23:27:56.222Z,28.90
2018-04-15T23:30:23.800Z,28.47
2018-04-15T23:32:52.075Z,28.07
2018-04-15T23:35:19.611Z,28.55
2018-04-15T23:37:47.411Z,29.17
2018-04-15T23:40:26.851Z,29.40
2018-04-15T23:45:43.485Z,28.90
2018-04-15T23:48:11.771Z,35.30
2018-04-15T23:50:39.307Z,32.93
2018-04-15T23:53:06.863Z,30.20
2018-04-15T23:55:34.385Z,31.33
2018-04-15T23:58:02.677Z,30.30
